sensor_id;sensor_type;location;lat;lon;timestamp;P1;durP1;ratioP1;P2;durP2;ratioP2
45548;SDS011;31270;48.328;10.096;2024-02-26T00:01:53;10.10;;;8.13;;
45548;SDS011;31270;48.328;10.096;2024-02-26T00:04:19;11.37;;;8.67;;
45548;SDS011;31270;48.328;10.096;2024-02-26T00:06:44;11.10;;;7.40;;
45548;SDS011;31270;48.328;10.096;2024-02-26T00:09:10;10.93;;;7.53;;
45548;SDS011;31270;48.328;10.096;2024-02-26T00:11:36;14.60;;;8.20;;
45548;SDS011;31270;48.328;10.096;2024-02-26T00:14:02;11.37;;;7.73;;
45548;SDS011;31270;48.328;10.096;2024-02-26T00:16:28;11.47;;;7.80;;
45548;SDS011;31270;48.328;10.096;2024-02-26T00:18:54;11.03;;;7.67;;
45548;SDS011;31270;48.328;10.096;2024-02-26T00:21:19;10.87;;;6.87;;
45548;SDS011;31270;48.328;10.096;2024-02-26T00:23:45;10.27;;;7.80;;
45548;SDS011;31270;48.328;10.096;2024-02-26T00:26:10;12.90;;;8.07;;
45548;SDS011;31270;48.328;10.096;2024-02-26T00:28:36;10.13;;;7.63;;
45548;SDS011;31270;48.328;10.096;2024-02-26T00:31:02;14.40;;;8.73;;
45548;SDS011;31270;48.328;10.096;2024-02-26T00:33:28;11.57;;;7.60;;
45548;SDS011;31270;48.328;10.096;2024-02-26T00:35:54;10.90;;;7.57;;
45548;SDS011;31270;48.328;10.096;2024-02-26T00:38:20;12.90;;;8.20;;
45548;SDS011;31270;48.328;10.096;2024-02-26T00:40:45;11.37;;;8.20;;
45548;SDS011;31270;48.328;10.096;2024-02-26T00:43:11;12.63;;;8.53;;
45548;SDS011;31270;48.328;10.096;2024-02-26T00:45:37;10.03;;;7.70;;
45548;SDS011;31270;48.328;10.096;2024-02-26T00:48:03;12.57;;;8.80;;
45548;SDS011;31270;48.328;10.096;2024-02-26T00:50:32;10.73;;;8.30;;
45548;SDS011;31270;48.328;10.096;2024-02-26T00:52:58;11.63;;;8.67;;
45548;SDS011;31270;48.328;10.096;2024-02-26T00:55:25;11.37;;;8.37;;
45548;SDS011;31270;48.328;10.096;2024-02-26T00:57:50;11.60;;;8.40;;
45548;SDS011;31270;48.328;10.096;2024-02-26T01:00:16;13.23;;;8.97;;
45548;SDS011;31270;48.328;10.096;2024-02-26T01:02:42;14.07;;;8.77;;
45548;SDS011;31270;48.328;10.096;2024-02-26T01:05:08;14.47;;;9.43;;
45548;SDS011;31270;48.328;10.096;2024-02-26T01:07:37;12.13;;;8.50;;
45548;SDS011;31270;48.328;10.096;2024-02-26T01:10:03;12.13;;;8.60;;
45548;SDS011;31270;48.328;10.096;2024-02-26T01:12:29;13.07;;;8.93;;
45548;SDS011;31270;48.328;10.096;2024-02-26T01:14:54;12.23;;;8.73;;
45548;SDS011;31270;48.328;10.096;2024-02-26T01:17:20;11.57;;;8.80;;
45548;SDS011;31270;48.328;10.096;2024-02-26T01:19:46;12.73;;;8.70;;
45548;SDS011;31270;48.328;10.096;2024-02-26T01:22:11;13.33;;;8.93;;
45548;SDS011;31270;48.328;10.096;2024-02-26T01:24:37;14.47;;;9.53;;
45548;SDS011;31270;48.328;10.096;2024-02-26T01:27:03;11.57;;;9.10;;
45548;SDS011;31270;48.328;10.096;2024-02-26T01:29:29;15.07;;;9.93;;
45548;SDS011;31270;48.328;10.096;2024-02-26T01:31:54;13.23;;;9.30;;
45548;SDS011;31270;48.328;10.096;2024-02-26T01:34:20;12.73;;;9.57;;
45548;SDS011;31270;48.328;10.096;2024-02-26T01:36:46;13.00;;;9.30;;
45548;SDS011;31270;48.328;10.096;2024-02-26T01:39:11;13.53;;;9.63;;
45548;SDS011;31270;48.328;10.096;2024-02-26T01:41:38;16.37;;;9.93;;
45548;SDS011;31270;48.328;10.096;2024-02-26T01:44:04;14.37;;;9.40;;
45548;SDS011;31270;48.328;10.096;2024-02-26T01:46:30;15.07;;;10.43;;
45548;SDS011;31270;48.328;10.096;2024-02-26T01:48:58;14.23;;;9.80;;
45548;SDS011;31270;48.328;10.096;2024-02-26T01:51:24;13.60;;;10.00;;
45548;SDS011;31270;48.328;10.096;2024-02-26T01:53:50;14.23;;;10.63;;
45548;SDS011;31270;48.328;10.096;2024-02-26T01:56:16;14.23;;;10.23;;
45548;SDS011;31270;48.328;10.096;2024-02-26T01:58:43;16.90;;;10.93;;
45548;SDS011;31270;48.328;10.096;2024-02-26T02:01:09;15.60;;;10.47;;
45548;SDS011;31270;48.328;10.096;2024-02-26T02:03:35;14.93;;;10.53;;
45548;SDS011;31270;48.328;10.096;2024-02-26T02:06:02;16.60;;;11.33;;
45548;SDS011;31270;48.328;10.096;2024-02-26T02:08:29;18.73;;;10.80;;
45548;SDS011;31270;48.328;10.096;2024-02-26T02:10:55;17.47;;;10.97;;
45548;SDS011;31270;48.328;10.096;2024-02-26T02:13:21;14.57;;;11.03;;
45548;SDS011;31270;48.328;10.096;2024-02-26T02:15:47;13.90;;;10.80;;
45548;SDS011;31270;48.328;10.096;2024-02-26T02:18:12;16.83;;;11.20;;
45548;SDS011;31270;48.328;10.096;2024-02-26T02:20:38;17.77;;;11.63;;
45548;SDS011;31270;48.328;10.096;2024-02-26T02:23:03;19.53;;;11.27;;
45548;SDS011;31270;48.328;10.096;2024-02-26T02:25:29;18.27;;;11.43;;
45548;SDS011;31270;48.328;10.096;2024-02-26T02:27:55;17.77;;;11.23;;
45548;SDS011;31270;48.328;10.096;2024-02-26T02:30:22;18.63;;;11.77;;
45548;SDS011;31270;48.328;10.096;2024-02-26T02:32:51;19.73;;;12.17;;
45548;SDS011;31270;48.328;10.096;2024-02-26T02:35:17;17.47;;;12.73;;
45548;SDS011;31270;48.328;10.096;2024-02-26T02:37:42;17.63;;;12.33;;
45548;SDS011;31270;48.328;10.096;2024-02-26T02:40:08;19.23;;;12.50;;
45548;SDS011;31270;48.328;10.096;2024-02-26T02:42:34;17.10;;;11.80;;
45548;SDS011;31270;48.328;10.096;2024-02-26T02:44:59;19.60;;;11.83;;
45548;SDS011;31270;48.328;10.096;2024-02-26T02:47:25;22.13;;;12.30;;
45548;SDS011;31270;48.328;10.096;2024-02-26T02:49:51;20.57;;;13.10;;
45548;SDS011;31270;48.328;10.096;2024-02-26T02:52:16;20.07;;;12.43;;
45548;SDS011;31270;48.328;10.096;2024-02-26T02:54:42;19.00;;;12.17;;
45548;SDS011;31270;48.328;10.096;2024-02-26T02:57:08;20.13;;;11.43;;
45548;SDS011;31270;48.328;10.096;2024-02-26T02:59:34;19.33;;;12.07;;
45548;SDS011;31270;48.328;10.096;2024-02-26T03:02:00;17.40;;;11.73;;
45548;SDS011;31270;48.328;10.096;2024-02-26T03:04:26;17.10;;;11.63;;
45548;SDS011;31270;48.328;10.096;2024-02-26T03:06:52;18.30;;;12.30;;
45548;SDS011;31270;48.328;10.096;2024-02-26T03:09:18;19.53;;;12.03;;
45548;SDS011;31270;48.328;10.096;2024-02-26T03:11:43;16.90;;;11.63;;
45548;SDS011;31270;48.328;10.096;2024-02-26T03:14:09;19.07;;;12.50;;
45548;SDS011;31270;48.328;10.096;2024-02-26T03:16:35;20.07;;;12.43;;
45548;SDS011;31270;48.328;10.096;2024-02-26T03:19:00;19.20;;;13.13;;
45548;SDS011;31270;48.328;10.096;2024-02-26T03:21:26;22.70;;;12.73;;
45548;SDS011;31270;48.328;10.096;2024-02-26T03:23:52;25.80;;;14.17;;
45548;SDS011;31270;48.328;10.096;2024-02-26T03:26:18;21.87;;;12.70;;
45548;SDS011;31270;48.328;10.096;2024-02-26T03:28:44;20.10;;;13.00;;
45548;SDS011;31270;48.328;10.096;2024-02-26T03:31:10;20.07;;;12.70;;
45548;SDS011;31270;48.328;10.096;2024-02-26T03:33:36;23.37;;;13.00;;
45548;SDS011;31270;48.328;10.096;2024-02-26T03:36:01;21.53;;;13.53;;
45548;SDS011;31270;48.328;10.096;2024-02-26T03:38:28;19.23;;;12.87;;
45548;SDS011;31270;48.328;10.096;2024-02-26T03:40:54;22.43;;;14.33;;
45548;SDS011;31270;48.328;10.096;2024-02-26T03:43:19;21.93;;;13.43;;
45548;SDS011;31270;48.328;10.096;2024-02-26T03:45:45;24.63;;;13.17;;
45548;SDS011;31270;48.328;10.096;2024-02-26T03:48:11;25.30;;;13.27;;
45548;SDS011;31270;48.328;10.096;2024-02-26T03:50:36;24.20;;;13.67;;
45548;SDS011;31270;48.328;10.096;2024-02-26T03:53:02;19.23;;;13.67;;
45548;SDS011;31270;48.328;10.096;2024-02-26T03:55:28;22.03;;;13.57;;
45548;SDS011;31270;48.328;10.096;2024-02-26T03:57:54;23.43;;;13.37;;
45548;SDS011;31270;48.328;10.096;2024-02-26T04:00:20;20.53;;;13.70;;
45548;SDS011;31270;48.328;10.096;2024-02-26T04:02:49;21.73;;;14.03;;
45548;SDS011;31270;48.328;10.096;2024-02-26T04:05:14;24.47;;;14.07;;
45548;SDS011;31270;48.328;10.096;2024-02-26T04:07:40;21.43;;;13.97;;
45548;SDS011;31270;48.328;10.096;2024-02-26T04:10:12;24.13;;;13.53;;
45548;SDS011;31270;48.328;10.096;2024-02-26T04:12:39;23.07;;;13.90;;
45548;SDS011;31270;48.328;10.096;2024-02-26T04:15:08;22.80;;;14.30;;
45548;SDS011;31270;48.328;10.096;2024-02-26T04:17:35;23.87;;;14.03;;
45548;SDS011;31270;48.328;10.096;2024-02-26T04:20:02;24.13;;;14.20;;
45548;SDS011;31270;48.328;10.096;2024-02-26T04:22:28;23.17;;;13.93;;
45548;SDS011;31270;48.328;10.096;2024-02-26T04:24:54;26.40;;;14.77;;
45548;SDS011;31270;48.328;10.096;2024-02-26T04:27:20;25.43;;;15.37;;
45548;SDS011;31270;48.328;10.096;2024-02-26T04:29:45;23.10;;;14.07;;
45548;SDS011;31270;48.328;10.096;2024-02-26T04:32:11;23.37;;;14.03;;
45548;SDS011;31270;48.328;10.096;2024-02-26T04:34:37;27.80;;;15.37;;
45548;SDS011;31270;48.328;10.096;2024-02-26T04:37:02;24.37;;;15.33;;
45548;SDS011;31270;48.328;10.096;2024-02-26T04:39:28;27.93;;;15.30;;
45548;SDS011;31270;48.328;10.096;2024-02-26T04:41:54;27.47;;;16.20;;
45548;SDS011;31270;48.328;10.096;2024-02-26T04:44:19;25.83;;;15.70;;
45548;SDS011;31270;48.328;10.096;2024-02-26T04:46:45;27.87;;;15.53;;
45548;SDS011;31270;48.328;10.096;2024-02-26T04:49:11;27.00;;;15.80;;
45548;SDS011;31270;48.328;10.096;2024-02-26T04:51:36;27.10;;;14.63;;
45548;SDS011;31270;48.328;10.096;2024-02-26T04:54:02;27.20;;;15.00;;
45548;SDS011;31270;48.328;10.096;2024-02-26T04:56:28;26.77;;;15.60;;
45548;SDS011;31270;48.328;10.096;2024-02-26T04:58:53;25.57;;;14.53;;
45548;SDS011;31270;48.328;10.096;2024-02-26T05:01:19;26.63;;;15.87;;
45548;SDS011;31270;48.328;10.096;2024-02-26T05:03:44;27.07;;;15.23;;
45548;SDS011;31270;48.328;10.096;2024-02-26T05:06:10;24.70;;;15.10;;
45548;SDS011;31270;48.328;10.096;2024-02-26T05:08:36;30.47;;;16.50;;
45548;SDS011;31270;48.328;10.096;2024-02-26T05:11:03;26.27;;;16.50;;
45548;SDS011;31270;48.328;10.096;2024-02-26T05:13:29;30.40;;;16.97;;
45548;SDS011;31270;48.328;10.096;2024-02-26T05:15:54;27.97;;;15.50;;
45548;SDS011;31270;48.328;10.096;2024-02-26T05:18:21;29.80;;;16.83;;
45548;SDS011;31270;48.328;10.096;2024-02-26T05:20:47;29.03;;;15.50;;
45548;SDS011;31270;48.328;10.096;2024-02-26T05:23:13;31.03;;;15.90;;
45548;SDS011;31270;48.328;10.096;2024-02-26T05:25:38;28.70;;;16.30;;
45548;SDS011;31270;48.328;10.096;2024-02-26T05:28:04;28.17;;;16.27;;
45548;SDS011;31270;48.328;10.096;2024-02-26T05:30:30;29.43;;;15.80;;
45548;SDS011;31270;48.328;10.096;2024-02-26T05:32:55;25.17;;;15.50;;
45548;SDS011;31270;48.328;10.096;2024-02-26T05:35:21;27.27;;;16.07;;
45548;SDS011;31270;48.328;10.096;2024-02-26T05:37:46;29.27;;;16.30;;
45548;SDS011;31270;48.328;10.096;2024-02-26T05:40:12;26.63;;;15.83;;
45548;SDS011;31270;48.328;10.096;2024-02-26T05:42:38;29.67;;;16.40;;
45548;SDS011;31270;48.328;10.096;2024-02-26T05:45:04;30.53;;;16.07;;
45548;SDS011;31270;48.328;10.096;2024-02-26T05:47:34;29.50;;;16.17;;
45548;SDS011;31270;48.328;10.096;2024-02-26T05:50:07;29.70;;;16.80;;
45548;SDS011;31270;48.328;10.096;2024-02-26T05:52:36;25.47;;;15.27;;
45548;SDS011;31270;48.328;10.096;2024-02-26T05:55:03;29.07;;;16.40;;
45548;SDS011;31270;48.328;10.096;2024-02-26T05:57:30;30.27;;;17.37;;
45548;SDS011;31270;48.328;10.096;2024-02-26T05:59:57;28.67;;;17.33;;
45548;SDS011;31270;48.328;10.096;2024-02-26T06:02:25;34.63;;;16.80;;
45548;SDS011;31270;48.328;10.096;2024-02-26T06:04:51;30.60;;;17.33;;
45548;SDS011;31270;48.328;10.096;2024-02-26T06:07:17;32.93;;;19.03;;
45548;SDS011;31270;48.328;10.096;2024-02-26T06:09:42;32.73;;;17.80;;
45548;SDS011;31270;48.328;10.096;2024-02-26T06:12:08;30.07;;;17.10;;
45548;SDS011;31270;48.328;10.096;2024-02-26T06:14:33;30.43;;;17.40;;
45548;SDS011;31270;48.328;10.096;2024-02-26T06:16:59;29.77;;;17.00;;
45548;SDS011;31270;48.328;10.096;2024-02-26T06:19:25;30.60;;;16.60;;
45548;SDS011;31270;48.328;10.096;2024-02-26T06:21:50;28.33;;;16.57;;
45548;SDS011;31270;48.328;10.096;2024-02-26T06:24:16;30.67;;;17.63;;
45548;SDS011;31270;48.328;10.096;2024-02-26T06:26:41;34.00;;;17.57;;
45548;SDS011;31270;48.328;10.096;2024-02-26T06:29:07;29.67;;;16.77;;
45548;SDS011;31270;48.328;10.096;2024-02-26T06:31:33;29.53;;;16.70;;
45548;SDS011;31270;48.328;10.096;2024-02-26T06:33:58;29.20;;;17.00;;
45548;SDS011;31270;48.328;10.096;2024-02-26T06:36:24;28.30;;;16.83;;
45548;SDS011;31270;48.328;10.096;2024-02-26T06:38:50;29.77;;;16.57;;
45548;SDS011;31270;48.328;10.096;2024-02-26T06:41:19;28.57;;;16.37;;
45548;SDS011;31270;48.328;10.096;2024-02-26T06:43:44;31.80;;;17.77;;
45548;SDS011;31270;48.328;10.096;2024-02-26T06:46:11;30.00;;;17.67;;
45548;SDS011;31270;48.328;10.096;2024-02-26T06:48:37;33.97;;;17.50;;
45548;SDS011;31270;48.328;10.096;2024-02-26T06:51:03;30.07;;;17.47;;
45548;SDS011;31270;48.328;10.096;2024-02-26T06:53:28;31.57;;;16.83;;
45548;SDS011;31270;48.328;10.096;2024-02-26T06:55:54;31.13;;;15.83;;
45548;SDS011;31270;48.328;10.096;2024-02-26T06:58:20;29.20;;;16.17;;
45548;SDS011;31270;48.328;10.096;2024-02-26T07:00:45;28.47;;;15.07;;
45548;SDS011;31270;48.328;10.096;2024-02-26T07:03:11;31.53;;;17.20;;
45548;SDS011;31270;48.328;10.096;2024-02-26T07:05:39;30.73;;;16.83;;
45548;SDS011;31270;48.328;10.096;2024-02-26T07:08:04;28.57;;;16.43;;
45548;SDS011;31270;48.328;10.096;2024-02-26T07:10:31;30.33;;;17.57;;
45548;SDS011;31270;48.328;10.096;2024-02-26T07:12:56;29.37;;;17.17;;
45548;SDS011;31270;48.328;10.096;2024-02-26T07:15:22;31.27;;;16.97;;
45548;SDS011;31270;48.328;10.096;2024-02-26T07:17:47;27.80;;;15.83;;
45548;SDS011;31270;48.328;10.096;2024-02-26T07:20:14;28.90;;;16.50;;
45548;SDS011;31270;48.328;10.096;2024-02-26T07:22:40;33.93;;;17.40;;
45548;SDS011;31270;48.328;10.096;2024-02-26T07:25:07;35.23;;;18.40;;
45548;SDS011;31270;48.328;10.096;2024-02-26T07:27:34;28.77;;;16.37;;
45548;SDS011;31270;48.328;10.096;2024-02-26T07:30:00;33.10;;;17.10;;
45548;SDS011;31270;48.328;10.096;2024-02-26T07:32:25;31.60;;;18.07;;
45548;SDS011;31270;48.328;10.096;2024-02-26T07:34:51;30.87;;;18.67;;
45548;SDS011;31270;48.328;10.096;2024-02-26T07:37:17;28.97;;;17.60;;
45548;SDS011;31270;48.328;10.096;2024-02-26T07:39:42;28.10;;;16.33;;
45548;SDS011;31270;48.328;10.096;2024-02-26T07:42:08;32.33;;;17.33;;
45548;SDS011;31270;48.328;10.096;2024-02-26T07:44:34;33.57;;;19.23;;
45548;SDS011;31270;48.328;10.096;2024-02-26T07:47:00;31.90;;;18.63;;
45548;SDS011;31270;48.328;10.096;2024-02-26T07:49:25;28.70;;;16.73;;
45548;SDS011;31270;48.328;10.096;2024-02-26T07:51:51;32.40;;;16.73;;
45548;SDS011;31270;48.328;10.096;2024-02-26T07:54:16;32.57;;;18.63;;
45548;SDS011;31270;48.328;10.096;2024-02-26T07:56:44;31.53;;;18.17;;
45548;SDS011;31270;48.328;10.096;2024-02-26T07:59:09;32.03;;;17.97;;
45548;SDS011;31270;48.328;10.096;2024-02-26T08:01:35;29.57;;;17.43;;
45548;SDS011;31270;48.328;10.096;2024-02-26T08:04:04;28.90;;;16.97;;
45548;SDS011;31270;48.328;10.096;2024-02-26T08:06:30;34.03;;;18.43;;
45548;SDS011;31270;48.328;10.096;2024-02-26T08:08:55;28.53;;;17.20;;
45548;SDS011;31270;48.328;10.096;2024-02-26T08:11:21;31.83;;;18.57;;
45548;SDS011;31270;48.328;10.096;2024-02-26T08:13:47;30.33;;;17.50;;
45548;SDS011;31270;48.328;10.096;2024-02-26T08:16:12;30.03;;;17.13;;
45548;SDS011;31270;48.328;10.096;2024-02-26T08:18:38;25.47;;;16.20;;
45548;SDS011;31270;48.328;10.096;2024-02-26T08:21:04;27.83;;;16.73;;
45548;SDS011;31270;48.328;10.096;2024-02-26T08:23:30;31.43;;;16.13;;
45548;SDS011;31270;48.328;10.096;2024-02-26T08:25:56;29.30;;;16.00;;
45548;SDS011;31270;48.328;10.096;2024-02-26T08:28:22;32.47;;;17.07;;
45548;SDS011;31270;48.328;10.096;2024-02-26T08:30:48;30.17;;;18.50;;
45548;SDS011;31270;48.328;10.096;2024-02-26T08:33:13;31.03;;;18.17;;
45548;SDS011;31270;48.328;10.096;2024-02-26T08:35:39;37.43;;;19.83;;
45548;SDS011;31270;48.328;10.096;2024-02-26T08:38:05;28.70;;;17.57;;
45548;SDS011;31270;48.328;10.096;2024-02-26T08:40:31;34.57;;;21.20;;
45548;SDS011;31270;48.328;10.096;2024-02-26T08:42:56;28.73;;;17.40;;
45548;SDS011;31270;48.328;10.096;2024-02-26T08:45:22;30.10;;;18.10;;
45548;SDS011;31270;48.328;10.096;2024-02-26T08:47:52;23.73;;;14.50;;
45548;SDS011;31270;48.328;10.096;2024-02-26T08:50:17;22.17;;;14.33;;
45548;SDS011;31270;48.328;10.096;2024-02-26T08:52:43;24.60;;;13.57;;
45548;SDS011;31270;48.328;10.096;2024-02-26T08:55:18;21.57;;;14.03;;
45548;SDS011;31270;48.328;10.096;2024-02-26T08:57:44;22.53;;;13.63;;
45548;SDS011;31270;48.328;10.096;2024-02-26T09:00:10;29.50;;;15.87;;
45548;SDS011;31270;48.328;10.096;2024-02-26T09:02:36;25.63;;;15.40;;
45548;SDS011;31270;48.328;10.096;2024-02-26T09:05:04;22.87;;;15.13;;
45548;SDS011;31270;48.328;10.096;2024-02-26T09:07:31;22.13;;;14.83;;
45548;SDS011;31270;48.328;10.096;2024-02-26T09:09:56;23.83;;;13.97;;
45548;SDS011;31270;48.328;10.096;2024-02-26T09:12:22;21.20;;;13.60;;
45548;SDS011;31270;48.328;10.096;2024-02-26T09:14:57;22.57;;;12.63;;
45548;SDS011;31270;48.328;10.096;2024-02-26T09:19:58;24.40;;;14.23;;
45548;SDS011;31270;48.328;10.096;2024-02-26T09:22:25;23.77;;;15.27;;
45548;SDS011;31270;48.328;10.096;2024-02-26T09:24:50;24.53;;;15.17;;
45548;SDS011;31270;48.328;10.096;2024-02-26T09:27:17;22.73;;;14.13;;
45548;SDS011;31270;48.328;10.096;2024-02-26T09:29:43;22.83;;;14.50;;
45548;SDS011;31270;48.328;10.096;2024-02-26T09:32:08;24.33;;;15.03;;
45548;SDS011;31270;48.328;10.096;2024-02-26T09:34:34;25.40;;;15.03;;
45548;SDS011;31270;48.328;10.096;2024-02-26T09:37:00;22.80;;;14.23;;
45548;SDS011;31270;48.328;10.096;2024-02-26T09:39:26;24.30;;;15.20;;
45548;SDS011;31270;48.328;10.096;2024-02-26T09:41:52;23.07;;;14.33;;
45548;SDS011;31270;48.328;10.096;2024-02-26T09:44:19;26.60;;;14.47;;
45548;SDS011;31270;48.328;10.096;2024-02-26T09:46:48;24.53;;;14.33;;
45548;SDS011;31270;48.328;10.096;2024-02-26T09:49:17;26.00;;;15.77;;
45548;SDS011;31270;48.328;10.096;2024-02-26T09:51:44;25.47;;;15.10;;
45548;SDS011;31270;48.328;10.096;2024-02-26T09:54:12;22.37;;;14.03;;
45548;SDS011;31270;48.328;10.096;2024-02-26T09:56:39;24.77;;;14.33;;
45548;SDS011;31270;48.328;10.096;2024-02-26T09:59:10;23.20;;;13.47;;
45548;SDS011;31270;48.328;10.096;2024-02-26T10:01:38;22.03;;;13.80;;
45548;SDS011;31270;48.328;10.096;2024-02-26T10:04:07;18.73;;;12.47;;
45548;SDS011;31270;48.328;10.096;2024-02-26T10:06:34;20.57;;;13.10;;
45548;SDS011;31270;48.328;10.096;2024-02-26T10:09:02;21.37;;;13.20;;
45548;SDS011;31270;48.328;10.096;2024-02-26T10:11:31;20.77;;;12.97;;
45548;SDS011;31270;48.328;10.096;2024-02-26T10:13:57;16.73;;;11.43;;
45548;SDS011;31270;48.328;10.096;2024-02-26T10:16:22;20.10;;;12.67;;
45548;SDS011;31270;48.328;10.096;2024-02-26T10:18:49;17.77;;;11.97;;
45548;SDS011;31270;48.328;10.096;2024-02-26T10:21:20;18.73;;;11.77;;
45548;SDS011;31270;48.328;10.096;2024-02-26T10:23:46;19.87;;;11.70;;
45548;SDS011;31270;48.328;10.096;2024-02-26T10:26:13;17.97;;;11.00;;
45548;SDS011;31270;48.328;10.096;2024-02-26T10:28:40;16.17;;;10.80;;
45548;SDS011;31270;48.328;10.096;2024-02-26T10:31:08;15.13;;;10.10;;
45548;SDS011;31270;48.328;10.096;2024-02-26T10:33:37;16.07;;;10.33;;
45548;SDS011;31270;48.328;10.096;2024-02-26T10:36:04;17.00;;;10.87;;
45548;SDS011;31270;48.328;10.096;2024-02-26T10:38:30;15.87;;;10.70;;
45548;SDS011;31270;48.328;10.096;2024-02-26T10:40:57;16.90;;;10.33;;
45548;SDS011;31270;48.328;10.096;2024-02-26T10:43:23;17.70;;;9.80;;
45548;SDS011;31270;48.328;10.096;2024-02-26T10:45:50;18.53;;;10.93;;
45548;SDS011;31270;48.328;10.096;2024-02-26T10:48:16;13.37;;;9.60;;
45548;SDS011;31270;48.328;10.096;2024-02-26T10:50:46;18.23;;;10.80;;
45548;SDS011;31270;48.328;10.096;2024-02-26T10:53:22;16.73;;;10.50;;
45548;SDS011;31270;48.328;10.096;2024-02-26T10:55:55;16.50;;;10.60;;
45548;SDS011;31270;48.328;10.096;2024-02-26T10:58:25;12.60;;;9.47;;
45548;SDS011;31270;48.328;10.096;2024-02-26T11:00:52;15.27;;;10.47;;
45548;SDS011;31270;48.328;10.096;2024-02-26T11:03:18;15.33;;;10.13;;
45548;SDS011;31270;48.328;10.096;2024-02-26T11:05:49;14.63;;;10.30;;
45548;SDS011;31270;48.328;10.096;2024-02-26T11:08:15;14.20;;;9.97;;
45548;SDS011;31270;48.328;10.096;2024-02-26T11:10:47;15.80;;;10.53;;
45548;SDS011;31270;48.328;10.096;2024-02-26T11:13:21;16.07;;;9.93;;
45548;SDS011;31270;48.328;10.096;2024-02-26T11:15:51;15.83;;;10.57;;
45548;SDS011;31270;48.328;10.096;2024-02-26T11:18:18;16.53;;;10.40;;
45548;SDS011;31270;48.328;10.096;2024-02-26T11:20:45;16.13;;;10.70;;
45548;SDS011;31270;48.328;10.096;2024-02-26T11:23:11;15.63;;;10.30;;
45548;SDS011;31270;48.328;10.096;2024-02-26T11:25:37;17.57;;;11.07;;
45548;SDS011;31270;48.328;10.096;2024-02-26T11:28:05;17.13;;;10.83;;
45548;SDS011;31270;48.328;10.096;2024-02-26T11:30:38;16.03;;;10.67;;
45548;SDS011;31270;48.328;10.096;2024-02-26T11:33:09;14.73;;;10.47;;
45548;SDS011;31270;48.328;10.096;2024-02-26T11:35:37;18.03;;;11.00;;
45548;SDS011;31270;48.328;10.096;2024-02-26T11:38:03;15.20;;;10.87;;
45548;SDS011;31270;48.328;10.096;2024-02-26T11:40:31;16.63;;;10.70;;
45548;SDS011;31270;48.328;10.096;2024-02-26T11:42:58;15.57;;;10.47;;
45548;SDS011;31270;48.328;10.096;2024-02-26T11:48:14;16.13;;;10.80;;
45548;SDS011;31270;48.328;10.096;2024-02-26T11:50:53;16.70;;;10.60;;
45548;SDS011;31270;48.328;10.096;2024-02-26T11:53:24;19.67;;;10.50;;
45548;SDS011;31270;48.328;10.096;2024-02-26T11:59:08;16.80;;;11.07;;
45548;SDS011;31270;48.328;10.096;2024-02-26T12:02:00;17.77;;;11.70;;
45548;SDS011;31270;48.328;10.096;2024-02-26T12:04:29;16.53;;;10.90;;
45548;SDS011;31270;48.328;10.096;2024-02-26T12:06:56;14.50;;;10.47;;
45548;SDS011;31270;48.328;10.096;2024-02-26T12:09:40;17.33;;;10.60;;
45548;SDS011;31270;48.328;10.096;2024-02-26T12:12:10;14.80;;;9.87;;
45548;SDS011;31270;48.328;10.096;2024-02-26T12:14:50;15.77;;;10.83;;
45548;SDS011;31270;48.328;10.096;2024-02-26T12:17:21;17.03;;;11.13;;
45548;SDS011;31270;48.328;10.096;2024-02-26T12:19:48;14.17;;;10.10;;
45548;SDS011;31270;48.328;10.096;2024-02-26T12:22:13;14.77;;;10.27;;
45548;SDS011;31270;48.328;10.096;2024-02-26T12:24:40;16.43;;;10.77;;
45548;SDS011;31270;48.328;10.096;2024-02-26T12:27:06;17.63;;;11.27;;
45548;SDS011;31270;48.328;10.096;2024-02-26T12:29:32;13.83;;;9.47;;
45548;SDS011;31270;48.328;10.096;2024-02-26T12:31:57;16.30;;;10.90;;
45548;SDS011;31270;48.328;10.096;2024-02-26T12:34:23;14.93;;;10.27;;
45548;SDS011;31270;48.328;10.096;2024-02-26T12:36:50;16.50;;;10.30;;
45548;SDS011;31270;48.328;10.096;2024-02-26T12:39:16;16.47;;;10.87;;
45548;SDS011;31270;48.328;10.096;2024-02-26T12:41:44;17.13;;;9.73;;
45548;SDS011;31270;48.328;10.096;2024-02-26T12:44:14;19.10;;;11.23;;
45548;SDS011;31270;48.328;10.096;2024-02-26T12:46:43;16.67;;;11.73;;
45548;SDS011;31270;48.328;10.096;2024-02-26T12:49:14;17.87;;;10.27;;
45548;SDS011;31270;48.328;10.096;2024-02-26T12:51:41;13.87;;;10.27;;
45548;SDS011;31270;48.328;10.096;2024-02-26T12:54:07;14.73;;;9.93;;
45548;SDS011;31270;48.328;10.096;2024-02-26T12:56:36;15.27;;;10.00;;
45548;SDS011;31270;48.328;10.096;2024-02-26T12:59:05;15.43;;;10.87;;
45548;SDS011;31270;48.328;10.096;2024-02-26T13:01:32;18.03;;;10.67;;
45548;SDS011;31270;48.328;10.096;2024-02-26T13:03:58;13.37;;;9.70;;
45548;SDS011;31270;48.328;10.096;2024-02-26T13:06:25;16.57;;;10.83;;
45548;SDS011;31270;48.328;10.096;2024-02-26T13:08:55;15.00;;;9.73;;
45548;SDS011;31270;48.328;10.096;2024-02-26T13:11:23;16.07;;;10.40;;
45548;SDS011;31270;48.328;10.096;2024-02-26T13:13:52;17.07;;;10.73;;
45548;SDS011;31270;48.328;10.096;2024-02-26T13:16:27;17.83;;;11.23;;
45548;SDS011;31270;48.328;10.096;2024-02-26T13:18:52;13.97;;;10.03;;
45548;SDS011;31270;48.328;10.096;2024-02-26T13:21:18;14.67;;;10.23;;
45548;SDS011;31270;48.328;10.096;2024-02-26T13:23:48;16.33;;;10.90;;
45548;SDS011;31270;48.328;10.096;2024-02-26T13:26:16;16.33;;;10.70;;
45548;SDS011;31270;48.328;10.096;2024-02-26T13:28:45;17.97;;;10.97;;
45548;SDS011;31270;48.328;10.096;2024-02-26T13:31:39;14.87;;;11.07;;
45548;SDS011;31270;48.328;10.096;2024-02-26T13:34:22;18.07;;;10.93;;
45548;SDS011;31270;48.328;10.096;2024-02-26T13:36:58;16.37;;;10.67;;
45548;SDS011;31270;48.328;10.096;2024-02-26T13:39:27;19.53;;;11.77;;
45548;SDS011;31270;48.328;10.096;2024-02-26T13:42:15;17.47;;;11.73;;
45548;SDS011;31270;48.328;10.096;2024-02-26T13:44:44;18.53;;;11.33;;
45548;SDS011;31270;48.328;10.096;2024-02-26T13:47:09;16.30;;;10.73;;
45548;SDS011;31270;48.328;10.096;2024-02-26T13:49:38;19.67;;;11.17;;
45548;SDS011;31270;48.328;10.096;2024-02-26T13:52:05;17.33;;;11.53;;
45548;SDS011;31270;48.328;10.096;2024-02-26T13:54:34;15.73;;;10.23;;
45548;SDS011;31270;48.328;10.096;2024-02-26T13:57:00;18.47;;;10.33;;
45548;SDS011;31270;48.328;10.096;2024-02-26T13:59:26;16.80;;;10.80;;
45548;SDS011;31270;48.328;10.096;2024-02-26T14:01:51;15.67;;;9.63;;
45548;SDS011;31270;48.328;10.096;2024-02-26T14:04:20;15.17;;;9.73;;
45548;SDS011;31270;48.328;10.096;2024-02-26T14:06:45;14.50;;;9.47;;
45548;SDS011;31270;48.328;10.096;2024-02-26T14:09:11;15.00;;;9.70;;
45548;SDS011;31270;48.328;10.096;2024-02-26T14:11:43;14.43;;;9.03;;
45548;SDS011;31270;48.328;10.096;2024-02-26T14:14:10;14.30;;;9.00;;
45548;SDS011;31270;48.328;10.096;2024-02-26T14:16:37;12.53;;;8.83;;
45548;SDS011;31270;48.328;10.096;2024-02-26T14:19:03;14.43;;;8.73;;